createdAt,value
2022-12-11T00:00:31.663Z,28.62
2022-12-11T00:03:02.927Z,28.67
2022-12-11T00:05:34.032Z,28.60
2022-12-11T00:08:05.369Z,28.72
2022-12-11T00:10:38.041Z,28.76
2022-12-11T00:13:09.299Z,28.78
2022-12-11T00:15:40.686Z,28.81
2022-12-11T00:18:16.127Z,28.47
2022-12-11T00:20:47.241Z,28.80
2022-12-11T00:23:18.847Z,28.87
2022-12-11T00:25:51.157Z,28.86
2022-12-11T00:28:23.131Z,28.89
2022-12-11T00:30:54.391Z,28.91
2022-12-11T00:33:25.513Z,28.95
2022-12-11T00:35:56.629Z,28.98
2022-12-11T00:38:27.932Z,29.01
2022-12-11T00:41:02.366Z,29.04
2022-12-11T00:43:33.596Z,29.06
2022-12-11T00:46:05.388Z,29.07
2022-12-11T00:48:36.735Z,29.03
2022-12-11T00:51:08.508Z,29.10
2022-12-11T00:53:40.756Z,29.05
2022-12-11T00:56:17.379Z,28.82
2022-12-11T00:58:50.357Z,29.15
2022-12-11T01:01:25.188Z,29.25
2022-12-11T01:03:56.633Z,29.25
2022-12-11T01:06:29.649Z,29.27
2022-12-11T01:09:19.101Z,29.30
2022-12-11T01:11:50.254Z,29.29
2022-12-11T01:14:21.532Z,29.32
2022-12-11T01:16:52.862Z,29.27
2022-12-11T01:19:24.444Z,29.33
2022-12-11T01:21:55.745Z,29.36
2022-12-11T01:24:26.913Z,29.38
2022-12-11T01:26:58.039Z,29.39
2022-12-11T01:29:29.168Z,29.39
2022-12-11T01:32:00.386Z,29.35
2022-12-11T01:34:32.790Z,29.26
2022-12-11T01:37:03.914Z,29.19
2022-12-11T01:39:35.246Z,29.12
2022-12-11T01:42:08.210Z,29.10
2022-12-11T01:44:39.420Z,29.19
2022-12-11T01:47:10.573Z,29.20
2022-12-11T01:49:43.363Z,29.15
2022-12-11T01:52:23.170Z,29.16
2022-12-11T01:54:54.282Z,29.20
2022-12-11T01:57:25.923Z,29.23
2022-12-11T01:59:57.975Z,29.30
2022-12-11T02:02:32.389Z,29.37
2022-12-11T02:05:08.975Z,29.40
2022-12-11T02:07:48.338Z,29.16
2022-12-11T02:10:20.403Z,29.42
2022-12-11T02:12:59.440Z,29.46
2022-12-11T02:15:44.413Z,29.38
2022-12-11T02:18:32.368Z,29.50
2022-12-11T02:21:03.779Z,29.58
2022-12-11T02:23:41.063Z,29.60
2022-12-11T02:26:50.139Z,29.11
2022-12-11T02:29:36.137Z,29.64
2022-12-11T02:32:17.396Z,29.69
2022-12-11T02:34:59.891Z,29.67
2022-12-11T02:37:35.362Z,29.73
2022-12-11T02:40:10.799Z,29.32
2022-12-11T02:42:45.322Z,29.78
2022-12-11T02:45:18.426Z,29.78
2022-12-11T02:47:51.465Z,29.47
2022-12-11T02:50:25.260Z,29.82
2022-12-11T02:52:59.305Z,29.86
2022-12-11T02:55:31.599Z,29.86
2022-12-11T02:58:06.927Z,29.46
2022-12-11T03:00:38.534Z,29.92
2022-12-11T03:03:09.940Z,29.92
2022-12-11T03:05:41.650Z,29.97
2022-12-11T03:08:12.845Z,29.98
2022-12-11T03:10:43.946Z,29.91
2022-12-11T03:13:19.304Z,29.96
2022-12-11T03:16:08.847Z,30.06
2022-12-11T03:19:02.762Z,29.90
2022-12-11T03:21:40.854Z,29.51
2022-12-11T03:24:23.486Z,29.98
2022-12-11T03:27:05.656Z,29.91
2022-12-11T03:29:49.127Z,29.93
2022-12-11T03:32:25.483Z,29.51
2022-12-11T03:35:07.734Z,29.84
2022-12-11T03:37:39.431Z,29.69
2022-12-11T03:40:17.695Z,29.88
2022-12-11T03:42:53.267Z,29.92
2022-12-11T03:45:26.624Z,29.98
2022-12-11T03:48:01.591Z,29.64
2022-12-11T03:50:36.057Z,29.65
2022-12-11T03:53:07.933Z,30.05
2022-12-11T03:55:41.509Z,29.86
2022-12-11T03:58:13.103Z,30.08
2022-12-11T04:00:45.069Z,30.09
2022-12-11T04:03:17.214Z,30.07
2022-12-11T04:05:51.496Z,29.96
2022-12-11T04:08:24.209Z,29.97
2022-12-11T04:11:28.411Z,30.13
2022-12-11T04:14:17.813Z,30.12
2022-12-11T04:16:48.969Z,30.15
2022-12-11T04:19:39.854Z,30.16
2022-12-11T04:22:31.505Z,29.84
2022-12-11T04:25:04.361Z,29.46
2022-12-11T04:27:51.038Z,30.25
2022-12-11T04:30:33.727Z,30.26
2022-12-11T04:33:05.889Z,30.26
2022-12-11T04:35:38.108Z,30.26
2022-12-11T04:38:09.720Z,30.14
2022-12-11T04:40:41.065Z,30.31
2022-12-11T04:43:12.229Z,30.22
2022-12-11T04:45:43.290Z,30.34
2022-12-11T04:48:14.381Z,30.42
2022-12-11T04:50:45.642Z,30.46
2022-12-11T04:53:17.135Z,30.53
2022-12-11T04:55:48.322Z,30.55
2022-12-11T04:58:20.256Z,30.62
2022-12-11T05:00:51.362Z,30.63
2022-12-11T05:03:22.528Z,30.66
2022-12-11T05:05:55.396Z,30.38
2022-12-11T05:08:26.611Z,30.40
2022-12-11T05:11:09.969Z,30.73
2022-12-11T05:13:41.473Z,30.73
2022-12-11T05:16:16.247Z,30.69
2022-12-11T05:18:48.849Z,30.59
2022-12-11T05:21:20.070Z,30.61
2022-12-11T05:23:51.239Z,30.61
2022-12-11T05:26:22.927Z,30.45
2022-12-11T05:28:56.142Z,30.17
2022-12-11T05:31:30.198Z,30.47
2022-12-11T05:34:01.370Z,30.50
2022-12-11T05:36:36.620Z,30.52
2022-12-11T05:39:08.053Z,30.45
2022-12-11T05:41:39.486Z,30.38
2022-12-11T05:44:15.018Z,30.45
2022-12-11T05:46:46.220Z,30.36
2022-12-11T05:49:19.986Z,30.29
2022-12-11T05:51:51.847Z,30.42
2022-12-11T05:54:23.034Z,30.41
2022-12-11T05:56:54.223Z,30.25
2022-12-11T05:59:25.370Z,30.32
2022-12-11T06:01:56.636Z,30.40
2022-12-11T06:04:27.806Z,30.39
2022-12-11T06:06:58.968Z,30.45
2022-12-11T06:09:30.310Z,30.34
2022-12-11T06:12:01.522Z,30.36
2022-12-11T06:14:32.671Z,30.20
2022-12-11T06:17:03.820Z,30.16
2022-12-11T06:19:36.983Z,30.04
2022-12-11T06:22:08.455Z,30.38
2022-12-11T06:24:39.890Z,30.32
2022-12-11T06:27:11.520Z,30.38
2022-12-11T06:29:42.840Z,30.37
2022-12-11T06:32:14.047Z,30.35
2022-12-11T06:34:45.294Z,30.36
2022-12-11T06:37:16.413Z,30.36
2022-12-11T06:39:47.630Z,30.36
2022-12-11T06:42:18.933Z,30.28
2022-12-11T06:44:49.983Z,30.35
2022-12-11T06:47:21.253Z,30.35
2022-12-11T06:49:52.756Z,30.25
2022-12-11T06:52:25.652Z,30.04
2022-12-11T06:54:57.470Z,30.39
2022-12-11T06:57:28.578Z,30.25
2022-12-11T06:59:59.692Z,30.33
2022-12-11T07:02:30.846Z,30.27
2022-12-11T07:05:02.124Z,30.30
2022-12-11T07:07:33.680Z,30.34
2022-12-11T07:10:08.411Z,30.30
2022-12-11T07:12:40.874Z,30.33
2022-12-11T07:15:12.649Z,30.34
2022-12-11T07:17:43.526Z,30.10
2022-12-11T07:20:14.867Z,30.34
2022-12-11T07:22:46.767Z,30.32
2022-12-11T07:25:17.500Z,30.11
2022-12-11T07:27:48.862Z,30.32
2022-12-11T07:30:20.518Z,30.33
2022-12-11T07:32:52.350Z,30.32
2022-12-11T07:35:23.715Z,30.20
2022-12-11T07:37:55.031Z,30.29
2022-12-11T07:40:26.295Z,30.30
2022-12-11T07:42:57.445Z,30.31
2022-12-11T07:45:28.645Z,30.31
2022-12-11T07:48:00.709Z,30.22
2022-12-11T07:50:35.131Z,30.06
2022-12-11T07:53:09.200Z,30.25
2022-12-11T07:55:40.322Z,30.22
2022-12-11T07:58:11.577Z,30.06
2022-12-11T08:00:43.155Z,30.31
2022-12-11T08:03:14.573Z,30.38
2022-12-11T08:05:53.837Z,30.27
2022-12-11T08:08:25.065Z,30.43
2022-12-11T08:10:56.390Z,30.56
2022-12-11T08:13:27.566Z,30.64
2022-12-11T08:15:59.086Z,30.74
2022-12-11T08:18:30.339Z,30.81
2022-12-11T08:21:01.724Z,30.92
2022-12-11T08:23:33.348Z,30.98
2022-12-11T08:26:12.917Z,31.04
2022-12-11T08:28:44.614Z,31.09
2022-12-11T08:31:20.243Z,31.15
2022-12-11T08:33:52.873Z,31.22
2022-12-11T08:36:24.677Z,31.01
2022-12-11T08:38:57.941Z,30.77
2022-12-11T08:41:31.944Z,31.34
2022-12-11T08:44:04.689Z,31.38
2022-12-11T08:46:37.468Z,31.36
2022-12-11T08:49:09.152Z,31.44
2022-12-11T08:51:40.571Z,31.47
2022-12-11T08:54:13.835Z,31.50
2022-12-11T08:56:45.386Z,31.53
2022-12-11T08:59:17.077Z,31.55
2022-12-11T09:02:06.498Z,31.56
2022-12-11T09:04:37.939Z,31.61
2022-12-11T09:07:09.284Z,31.57
2022-12-11T09:09:40.920Z,31.53
2022-12-11T09:12:12.045Z,31.39
2022-12-11T09:14:43.428Z,31.61
2022-12-11T09:17:14.973Z,31.37
2022-12-11T09:19:46.625Z,31.74
2022-12-11T09:22:18.607Z,31.68
2022-12-11T09:24:49.942Z,31.45
2022-12-11T09:27:22.810Z,31.53
2022-12-11T09:29:54.372Z,31.50
2022-12-11T09:32:25.569Z,31.22
2022-12-11T09:34:56.852Z,31.38
2022-12-11T09:37:28.470Z,31.38
2022-12-11T09:40:05.587Z,31.36
2022-12-11T09:43:11.515Z,31.21
2022-12-11T09:45:43.588Z,31.29
2022-12-11T09:48:21.439Z,31.31
2022-12-11T09:50:57.004Z,31.27
2022-12-11T09:53:39.267Z,31.25
2022-12-11T09:56:33.844Z,31.15
2022-12-11T09:59:13.692Z,31.23
2022-12-11T10:01:56.746Z,31.22
2022-12-11T10:04:37.660Z,31.19
2022-12-11T10:07:41.126Z,31.25
2022-12-11T10:10:44.924Z,31.27
2022-12-11T10:13:52.609Z,31.29
2022-12-11T10:16:46.495Z,31.34
2022-12-11T10:19:29.080Z,31.09
2022-12-11T10:22:03.066Z,31.54
2022-12-11T10:25:10.653Z,31.08
2022-12-11T10:27:43.117Z,31.21
2022-12-11T10:30:22.851Z,31.63
2022-12-11T10:33:05.488Z,31.32
2022-12-11T10:35:46.441Z,31.67
2022-12-11T10:38:30.402Z,31.64
2022-12-11T10:41:12.918Z,31.19
2022-12-11T10:43:47.576Z,31.71
2022-12-11T10:46:20.847Z,31.73
2022-12-11T10:48:55.148Z,31.39
2022-12-11T10:51:44.485Z,31.61
2022-12-11T10:54:39.909Z,31.53
2022-12-11T10:57:16.029Z,31.71
2022-12-11T10:59:52.279Z,31.44
2022-12-11T11:02:34.529Z,31.69
2022-12-11T11:05:19.063Z,31.60
2022-12-11T11:07:50.679Z,31.70
2022-12-11T11:10:22.808Z,31.45
2022-12-11T11:13:03.548Z,31.68
2022-12-11T11:15:35.258Z,31.73
2022-12-11T11:18:18.672Z,31.57
2022-12-11T11:20:51.210Z,31.68
2022-12-11T11:23:24.387Z,31.50
2022-12-11T11:26:02.342Z,31.31
2022-12-11T11:28:43.045Z,31.56
2022-12-11T11:31:16.991Z,31.20
2022-12-11T11:33:57.466Z,31.60
2022-12-11T11:36:31.284Z,31.54
2022-12-11T11:39:28.816Z,31.53
2022-12-11T11:42:12.544Z,31.58
2022-12-11T11:44:59.805Z,30.79
2022-12-11T11:47:38.879Z,31.48
2022-12-11T11:50:28.698Z,31.39
2022-12-11T11:53:04.878Z,30.92
2022-12-11T11:56:04.943Z,31.25
2022-12-11T11:59:06.338Z,31.38
2022-12-11T12:01:38.231Z,31.40
2022-12-11T12:04:09.924Z,31.35
2022-12-11T12:07:06.233Z,31.38
2022-12-11T12:09:40.369Z,31.36
2022-12-11T12:12:28.549Z,31.22
2022-12-11T12:15:20.011Z,31.30
2022-12-11T12:18:01.918Z,31.25
2022-12-11T12:20:48.777Z,31.30
2022-12-11T12:23:50.484Z,31.27
2022-12-11T12:26:54.056Z,31.29
2022-12-11T12:29:55.406Z,31.22
2022-12-11T12:32:49.581Z,30.83
2022-12-11T12:35:39.945Z,31.07
2022-12-11T12:38:17.482Z,31.07
2022-12-11T12:41:15.745Z,30.99
2022-12-11T12:44:07.200Z,30.87
2022-12-11T12:46:58.338Z,30.81
2022-12-11T12:49:52.323Z,30.82
2022-12-11T12:52:39.133Z,30.82
2022-12-11T12:55:20.311Z,30.80
2022-12-11T12:58:06.580Z,30.77
2022-12-11T13:00:41.096Z,30.57
2022-12-11T13:03:21.782Z,30.64
2022-12-11T13:06:12.644Z,30.70
2022-12-11T13:08:54.058Z,30.72
2022-12-11T13:11:35.856Z,30.38
2022-12-11T13:14:24.494Z,30.48
2022-12-11T13:17:28.164Z,30.62
2022-12-11T13:20:27.122Z,30.61
2022-12-11T13:23:28.893Z,30.64
2022-12-11T13:26:03.472Z,30.61
2022-12-11T13:28:40.628Z,30.63
2022-12-11T13:31:18.039Z,30.66
2022-12-11T13:33:59.561Z,30.70
2022-12-11T13:36:39.198Z,30.67
2022-12-11T13:39:41.332Z,29.98
2022-12-11T13:42:35.319Z,30.69
2022-12-11T13:45:07.335Z,30.72
2022-12-11T13:47:39.420Z,30.71
2022-12-11T13:50:46.463Z,30.55
2022-12-11T13:53:20.681Z,30.25
2022-12-11T13:56:24.724Z,30.40
2022-12-11T13:58:56.673Z,30.43
2022-12-11T14:01:34.124Z,30.35
2022-12-11T14:04:17.850Z,30.33
2022-12-11T14:06:50.190Z,30.23
2022-12-11T14:09:25.976Z,29.77
2022-12-11T14:11:59.206Z,30.11
2022-12-11T14:14:52.888Z,29.90
2022-12-11T14:17:30.350Z,29.63
2022-12-11T14:20:04.940Z,30.01
2022-12-11T14:22:36.378Z,29.90
2022-12-11T14:25:25.064Z,29.40
2022-12-11T14:27:58.735Z,29.83
2022-12-11T14:30:31.083Z,29.55
2022-12-11T14:33:04.657Z,29.49
2022-12-11T14:35:40.915Z,28.94
2022-12-11T14:38:44.766Z,29.60
2022-12-11T14:41:23.476Z,29.66
2022-12-11T14:44:00.516Z,29.63
2022-12-11T14:46:42.306Z,29.10
2022-12-11T14:49:41.877Z,29.35
2022-12-11T14:52:32.266Z,29.49
2022-12-11T14:55:12.094Z,29.29
2022-12-11T14:57:47.757Z,28.74
2022-12-11T15:00:31.782Z,28.98
2022-12-11T15:03:14.387Z,29.00
2022-12-11T15:05:56.210Z,29.17
2022-12-11T15:08:34.307Z,29.40
2022-12-11T15:11:12.400Z,29.36
2022-12-11T15:13:57.649Z,29.27
2022-12-11T15:16:33.592Z,29.04
2022-12-11T15:19:05.834Z,29.32
2022-12-11T15:21:39.740Z,29.24
2022-12-11T15:24:26.653Z,28.82
2022-12-11T15:27:02.547Z,29.11
2022-12-11T15:29:38.707Z,29.26
2022-12-11T15:32:16.301Z,29.23
2022-12-11T15:34:49.782Z,29.19
2022-12-11T15:37:38.054Z,29.20
2022-12-11T15:40:10.261Z,29.21
2022-12-11T15:42:43.950Z,29.31
2022-12-11T15:45:23.708Z,29.28
2022-12-11T15:47:56.363Z,29.30
2022-12-11T15:50:32.319Z,29.30
2022-12-11T15:53:03.734Z,29.32
2022-12-11T15:55:36.535Z,29.17
2022-12-11T15:58:14.315Z,28.85
2022-12-11T16:00:46.167Z,29.29
2022-12-11T16:03:20.457Z,29.27
2022-12-11T16:05:53.157Z,29.29
2022-12-11T16:08:25.987Z,29.00
2022-12-11T16:10:58.103Z,29.28
2022-12-11T16:13:28.844Z,28.92
2022-12-11T16:16:00.289Z,29.23
2022-12-11T16:18:34.656Z,29.20
2022-12-11T16:21:08.085Z,29.21
2022-12-11T16:23:39.829Z,29.19
2022-12-11T16:26:12.015Z,29.08
2022-12-11T16:28:43.997Z,29.07
2022-12-11T16:31:17.437Z,29.14
2022-12-11T16:33:48.867Z,29.16
2022-12-11T16:36:22.272Z,29.05
2022-12-11T16:38:54.324Z,29.06
2022-12-11T16:41:28.293Z,29.06
2022-12-11T16:44:02.874Z,29.06
2022-12-11T16:46:34.316Z,29.05
2022-12-11T16:49:06.702Z,28.55
2022-12-11T16:51:38.205Z,29.04
2022-12-11T16:54:09.669Z,29.03
2022-12-11T16:56:41.184Z,28.67
2022-12-11T16:59:14.449Z,28.96
2022-12-11T17:01:46.569Z,28.94
2022-12-11T17:04:18.094Z,28.96
2022-12-11T17:06:50.100Z,28.94
2022-12-11T17:09:22.782Z,28.93
2022-12-11T17:11:54.282Z,28.87
2022-12-11T17:14:25.625Z,28.92
2022-12-11T17:16:58.112Z,28.83
2022-12-11T17:19:29.578Z,28.90
2022-12-11T17:22:01.035Z,28.89
2022-12-11T17:24:32.393Z,28.86
2022-12-11T17:27:03.844Z,28.78
2022-12-11T17:29:35.247Z,28.89
2022-12-11T17:32:07.023Z,28.87
2022-12-11T17:34:38.863Z,28.74
2022-12-11T17:37:10.280Z,28.78
2022-12-11T17:39:41.769Z,28.82
2022-12-11T17:42:13.461Z,28.82
2022-12-11T17:44:46.852Z,28.70
2022-12-11T17:47:18.415Z,28.80
2022-12-11T17:49:50.006Z,28.80
2022-12-11T17:52:21.533Z,28.74
2022-12-11T17:54:54.509Z,28.77
2022-12-11T17:57:25.978Z,28.75
2022-12-11T17:59:58.127Z,28.67
2022-12-11T18:02:29.987Z,28.71
2022-12-11T18:05:01.876Z,28.70
2022-12-11T18:07:33.264Z,28.69
2022-12-11T18:10:04.951Z,28.69
2022-12-11T18:12:36.296Z,28.35
2022-12-11T18:15:08.189Z,28.58
2022-12-11T18:17:39.739Z,28.44
2022-12-11T18:20:15.911Z,28.61
2022-12-11T18:22:47.255Z,28.61
2022-12-11T18:25:18.859Z,28.59
2022-12-11T18:27:50.303Z,28.46
2022-12-11T18:30:21.954Z,28.55
2022-12-11T18:32:54.545Z,28.56
2022-12-11T18:35:26.894Z,28.50
2022-12-11T18:37:59.188Z,28.50
2022-12-11T18:40:30.775Z,28.54
2022-12-11T18:43:02.057Z,28.49
2022-12-11T18:45:33.502Z,28.17
2022-12-11T18:48:05.047Z,28.42
2022-12-11T18:50:37.886Z,28.44
2022-12-11T18:53:08.687Z,28.13
2022-12-11T18:55:48.098Z,28.44
2022-12-11T18:58:21.986Z,28.46
2022-12-11T19:00:53.355Z,28.38
2022-12-11T19:03:24.813Z,28.36
2022-12-11T19:05:56.124Z,27.91
2022-12-11T19:08:27.451Z,28.40
2022-12-11T19:10:59.032Z,28.38
2022-12-11T19:13:30.311Z,28.37
2022-12-11T19:16:02.405Z,28.31
2022-12-11T19:18:33.836Z,28.37
2022-12-11T19:21:12.605Z,27.70
2022-12-11T19:23:45.243Z,28.36
2022-12-11T19:26:20.524Z,28.36
2022-12-11T19:28:52.930Z,28.34
2022-12-11T19:31:25.635Z,28.35
2022-12-11T19:33:58.562Z,28.36
2022-12-11T19:36:32.190Z,27.92
2022-12-11T19:39:07.089Z,28.32
2022-12-11T19:41:41.219Z,28.29
2022-12-11T19:44:12.961Z,28.19
2022-12-11T19:46:44.821Z,28.28
2022-12-11T19:49:16.892Z,28.26
2022-12-11T19:51:49.090Z,28.30
2022-12-11T19:54:20.790Z,28.25
2022-12-11T19:56:52.553Z,28.20
2022-12-11T19:59:24.013Z,28.22
2022-12-11T20:01:55.396Z,28.23
2022-12-11T20:04:28.123Z,28.24
2022-12-11T20:06:59.432Z,28.22
2022-12-11T20:09:31.639Z,28.22
2022-12-11T20:12:04.599Z,28.20
2022-12-11T20:14:36.101Z,28.21
2022-12-11T20:17:12.985Z,27.86
2022-12-11T20:19:45.565Z,28.09
2022-12-11T20:22:16.488Z,27.82
2022-12-11T20:24:47.713Z,28.12
2022-12-11T20:27:19.122Z,28.13
2022-12-11T20:29:50.610Z,28.12
2022-12-11T20:32:22.002Z,28.09
2022-12-11T20:34:56.976Z,28.10
2022-12-11T20:37:30.447Z,28.07
2022-12-11T20:40:02.245Z,28.09
2022-12-11T20:42:34.737Z,28.09
2022-12-11T20:45:07.218Z,28.06
2022-12-11T20:47:39.113Z,27.95
2022-12-11T20:50:12.541Z,28.04
2022-12-11T20:52:44.194Z,28.07
2022-12-11T20:55:16.368Z,28.02
2022-12-11T20:57:48.425Z,28.04
2022-12-11T21:00:20.534Z,27.95
2022-12-11T21:02:54.710Z,27.68
2022-12-11T21:05:26.362Z,27.95
2022-12-11T21:07:58.123Z,27.94
2022-12-11T21:10:29.451Z,27.97
2022-12-11T21:13:00.763Z,27.94
2022-12-11T21:15:32.403Z,27.89
2022-12-11T21:18:04.467Z,27.94
2022-12-11T21:20:36.972Z,27.91
2022-12-11T21:23:08.350Z,27.91
2022-12-11T21:25:42.071Z,27.92
2022-12-11T21:28:13.382Z,27.92
2022-12-11T21:30:44.963Z,27.89
2022-12-11T21:33:16.734Z,27.52
2022-12-11T21:35:54.987Z,27.85
2022-12-11T21:38:27.032Z,27.87
2022-12-11T21:40:59.158Z,27.83
2022-12-11T21:43:30.193Z,27.48
2022-12-11T21:46:02.351Z,27.79
2022-12-11T21:48:34.478Z,27.73
2022-12-11T21:51:20.831Z,27.78
2022-12-11T21:53:53.427Z,27.81
2022-12-11T21:56:26.862Z,27.44
2022-12-11T21:58:58.695Z,27.80
2022-12-11T22:01:34.989Z,27.62
2022-12-11T22:04:07.885Z,27.72
2022-12-11T22:06:39.345Z,27.67
2022-12-11T22:09:11.816Z,27.68
2022-12-11T22:11:44.965Z,27.53
2022-12-11T22:14:18.929Z,27.70
2022-12-11T22:16:50.919Z,27.65
2022-12-11T22:19:22.256Z,27.63
2022-12-11T22:21:53.976Z,27.65
2022-12-11T22:24:25.354Z,27.61
2022-12-11T22:26:57.799Z,27.63
2022-12-11T22:29:29.931Z,27.59
2022-12-11T22:32:00.747Z,27.29
2022-12-11T22:34:32.282Z,27.57
2022-12-11T22:37:04.472Z,27.50
2022-12-11T22:39:37.113Z,27.61
2022-12-11T22:42:08.949Z,27.55
2022-12-11T22:44:41.435Z,27.54
2022-12-11T22:47:13.327Z,27.38
2022-12-11T22:49:44.961Z,27.56
2022-12-11T22:52:16.599Z,27.54
2022-12-11T22:54:47.960Z,27.53
2022-12-11T22:57:19.351Z,27.52
2022-12-11T22:59:50.877Z,27.52
2022-12-11T23:02:22.276Z,27.47
2022-12-11T23:04:53.714Z,27.48
2022-12-11T23:07:25.107Z,27.52
2022-12-11T23:09:56.535Z,27.55
2022-12-11T23:12:27.956Z,27.65
2022-12-11T23:14:59.262Z,27.69
2022-12-11T23:17:30.669Z,27.76
2022-12-11T23:20:05.327Z,27.76
2022-12-11T23:22:37.122Z,27.87
2022-12-11T23:25:08.674Z,27.75
2022-12-11T23:27:40.252Z,27.86
2022-12-11T23:30:13.133Z,28.03
2022-12-11T23:32:44.461Z,28.01
2022-12-11T23:35:16.036Z,28.08
2022-12-11T23:37:48.860Z,28.24
2022-12-11T23:40:20.196Z,28.20
2022-12-11T23:42:51.858Z,28.30
2022-12-11T23:45:23.433Z,28.35
2022-12-11T23:47:54.742Z,28.39
2022-12-11T23:50:29.559Z,28.44
2022-12-11T23:53:00.898Z,28.47
2022-12-11T23:55:32.438Z,28.48
2022-12-11T23:58:04.012Z,28.48
